Comanche — 9HTY6 — position and weather

sailwx.info

Track history (hours):
 
Tides and Currents Weather Stations Pressure Air Temp Water Temp Dewpoint Dewpoint Depression Visibility Wind Speed Wind Dir Waves Ship Positions

Comanche

Last reported at 2017-Dec-15 23:38 UTC. Time now 2017-Dec-16 11:23 UTC.
Position N 45°31' E 036°46'.

Length 130 m; draft 2.6 m.

Type: Cargo ship. MMSI: 248855000.

Date/timePositionNaut miles runAvg speedWind from/ knotsBaromVisibWave heightAir tempDewpointWater temp
2017-Dec-15 23:38N 45°31' E 036°46'2 7.8
2017-Dec-15 23:21N 45°30' E 036°44'3 7.8
2017-Dec-15 22:59N 45°27' E 036°42'4 7.8
2017-Dec-15 22:31N 45°24' E 036°41'3 6.8
2017-Dec-15 22:01N 45°21' E 036°39'4 7.8
2017-Dec-15 21:31N 45°19' E 036°33'4 4.9
2017-Dec-15 20:40N 45°17' E 036°29'3 0.4
2017-Dec-15 12:53N 45°13' E 036°30'0 0.0
2017-Dec-15 12:29N 45°13' E 036°30'0 0.0
2017-Dec-15 12:00N 45°13' E 036°30'0 0.0
2017-Dec-15 11:08N 45°13' E 036°30'0 0.0
2017-Dec-15 08:56N 45°13' E 036°30'  
2017-Dec-10 10:18N 37°51' E 026°32'31 7.2
2017-Dec-10 06:02N 37°23' E 026°48'2 7.7
2017-Dec-10 05:47N 37°21' E 026°49'  
Track history (hours):
 
Tides and Currents Weather Stations Pressure Air Temp Water Temp Dewpoint Dewpoint Depression Visibility Wind Speed Wind Dir Waves Ship Positions

Comanche

Last reported at 2017-Dec-15 23:38 UTC. Time now 2017-Dec-16 11:23 UTC.
Position N 45°31' E 036°46'.

Length 130 m; draft 2.6 m.

Type: Cargo ship. MMSI: 248855000.

Date/timePositionNaut miles runAvg speedWind from/ knotsBaromVisibWave heightAir tempDewpointWater temp
2017-Dec-15 23:38N 45°31' E 036°46'2 7.8
2017-Dec-15 23:21N 45°30' E 036°44'3 7.8
2017-Dec-15 22:59N 45°27' E 036°42'4 7.8
2017-Dec-15 22:31N 45°24' E 036°41'3 6.8
2017-Dec-15 22:01N 45°21' E 036°39'4 7.8
2017-Dec-15 21:31N 45°19' E 036°33'4 4.9
2017-Dec-15 20:40N 45°17' E 036°29'3 0.4
2017-Dec-15 12:53N 45°13' E 036°30'0 0.0
2017-Dec-15 12:29N 45°13' E 036°30'0 0.0
2017-Dec-15 12:00N 45°13' E 036°30'0 0.0
2017-Dec-15 11:08N 45°13' E 036°30'0 0.0
2017-Dec-15 08:56N 45°13' E 036°30'  
2017-Dec-10 10:18N 37°51' E 026°32'31 7.2
2017-Dec-10 06:02N 37°23' E 026°48'2 7.7
2017-Dec-10 05:47N 37°21' E 026°49'  

Dump ship's entire track history